createdAt,value
2023-04-25T17:20:42.618Z,0
2023-04-25T17:25:44.849Z,3339
2023-04-25T17:30:48.969Z,3437
2023-04-25T17:35:53.170Z,3451
2023-04-25T17:40:57.281Z,3289
2023-04-25T17:46:01.481Z,2588
2023-04-25T17:51:05.642Z,2307
2023-04-25T18:01:13.975Z,1514
2023-04-25T18:06:18.197Z,1320
2023-04-25T18:11:22.248Z,1433
2023-04-25T18:16:26.463Z,1222
2023-04-25T18:21:30.611Z,925
2023-04-25T18:26:34.753Z,701
2023-04-25T18:31:38.912Z,503
2023-04-25T18:36:43.096Z,365
2023-04-25T18:41:55.162Z,259
2023-04-25T18:46:51.421Z,181
2023-04-25T18:51:57.766Z,125
2023-04-25T18:56:59.740Z,83
2023-04-25T19:02:02.116Z,42
2023-04-25T19:07:06.134Z,19
2023-04-25T19:12:10.340Z,8
2023-04-25T19:17:14.504Z,3
2023-04-25T19:22:18.626Z,0
2023-04-25T19:27:22.784Z,0
2023-04-25T19:32:26.997Z,0
2023-04-25T19:37:31.151Z,0
2023-04-25T19:42:35.298Z,0
2023-04-25T19:47:39.509Z,0
2023-04-25T19:52:43.624Z,0
2023-04-25T19:57:47.746Z,0
2023-04-25T20:02:52.054Z,0
2023-04-25T20:07:56.097Z,0
2023-04-25T20:18:04.468Z,0
2023-04-25T20:23:08.597Z,0
2023-04-25T20:28:12.777Z,0
2023-04-25T20:33:16.943Z,0
2023-04-25T20:38:21.076Z,0
2023-04-25T20:43:25.237Z,0
2023-04-25T20:48:29.417Z,0
2023-04-25T20:53:31.698Z,0
2023-04-25T20:58:35.846Z,0
2023-04-25T21:03:40.264Z,0
2023-04-25T21:08:42.276Z,0
2023-04-25T21:13:46.460Z,0
2023-04-25T21:18:50.850Z,0
2023-04-25T21:23:54.805Z,0
2023-04-25T21:28:58.957Z,0
2023-04-25T21:34:03.096Z,0
2023-04-25T21:39:07.281Z,0
2023-04-25T21:44:11.438Z,0
2023-04-25T21:49:15.560Z,0
2023-04-25T21:54:19.756Z,0
2023-04-25T21:59:23.920Z,0
2023-04-25T22:04:28.458Z,0
2023-04-25T22:09:34.753Z,0
2023-04-25T22:14:36.414Z,0
2023-04-25T22:19:40.583Z,0
2023-04-25T22:24:44.739Z,0
2023-04-25T22:29:48.903Z,0
2023-04-25T22:34:53.049Z,0
2023-04-25T22:39:57.246Z,0
2023-04-25T22:45:01.454Z,0
2023-04-25T22:50:05.565Z,0
2023-04-25T22:55:07.831Z,0
2023-04-25T23:00:11.987Z,0
2023-04-25T23:05:14.306Z,0
2023-04-25T23:10:18.449Z,0
2023-04-25T23:15:22.581Z,0
2023-04-25T23:20:26.780Z,0
2023-04-25T23:25:30.954Z,0
2023-04-25T23:30:35.087Z,0
2023-04-25T23:35:39.314Z,0
2023-04-25T23:40:43.518Z,0
2023-04-25T23:45:47.636Z,0
2023-04-25T23:50:51.754Z,0
2023-04-25T23:55:55.920Z,0
